Grady, Alabama
Current Conditions -  °F | °C
As of 9:53 AM on Tuesday 21 Oct 2014 (Local Time) from KTOI Reporting Station
Clear Clear  
Wind Chill: 21°   Ceiling: Unl
Heat Index: 21°   Visibility: 10mi
Dew Point: 12°   Wind: 7mph
Humidity: 57%   Direction: 60°ENE
Pressure: 30.07"   Gusts: NA
Location:  32°N, 86.2°W
Report Text: KTOI 211453Z AUTO 06006KT 10SM CLR 21/12 A3007 RMK AO2 SLP178 T02060117 50010
Loading
Personal Weather Stations






























Interactive Weather Map
Tropical Storm Tracking
New forecast layout! Learn more

10-Day Weather Forecast

Advertisements
Track Severe Weather on mobile